createdAt,value
2022-10-14T00:01:18.464Z,84.59
2022-10-14T00:03:46.245Z,84.53
2022-10-14T00:06:37.418Z,84.80
2022-10-14T00:09:08.839Z,84.61
2022-10-14T00:11:37.712Z,84.78
2022-10-14T00:14:11.428Z,84.68
2022-10-14T00:16:41.301Z,84.86
2022-10-14T00:19:08.314Z,85.22
2022-10-14T00:21:37.929Z,85.02
2022-10-14T00:24:05.431Z,85.20
2022-10-14T00:26:36.379Z,85.18
2022-10-14T00:29:07.876Z,85.25
2022-10-14T00:31:35.059Z,85.49
2022-10-14T00:34:02.278Z,85.85
2022-10-14T00:36:29.122Z,86.12
2022-10-14T00:38:56.587Z,86.12
2022-10-14T00:41:30.871Z,86.12
2022-10-14T00:44:05.631Z,86.38
2022-10-14T00:46:39.953Z,86.62
2022-10-14T00:49:27.486Z,86.59
2022-10-14T00:52:02.309Z,86.83
2022-10-14T00:54:51.835Z,87.14
2022-10-14T00:57:19.829Z,87.07
2022-10-14T00:59:47.380Z,86.84
2022-10-14T01:02:14.337Z,86.93
2022-10-14T01:04:44.738Z,87.11
2022-10-14T01:07:34.892Z,87.00
2022-10-14T01:10:27.770Z,87.41
2022-10-14T01:13:30.851Z,86.91
2022-10-14T01:16:19.749Z,86.92
2022-10-14T01:19:23.764Z,86.82
2022-10-14T01:21:58.867Z,87.05
2022-10-14T01:24:35.267Z,87.16
2022-10-14T01:27:15.756Z,87.09
2022-10-14T01:30:19.460Z,86.97
2022-10-14T01:32:49.191Z,87.38
2022-10-14T01:35:42.956Z,86.96
2022-10-14T01:38:20.964Z,87.10
2022-10-14T01:41:00.828Z,87.56
2022-10-14T01:43:30.099Z,87.47
2022-10-14T01:46:00.935Z,87.59
2022-10-14T01:48:34.271Z,87.54
2022-10-14T01:51:04.862Z,87.68
2022-10-14T01:53:42.699Z,87.66
2022-10-14T01:56:11.921Z,88.07
2022-10-14T01:58:40.285Z,88.20
2022-10-14T02:01:09.992Z,88.02
2022-10-14T02:03:45.835Z,87.96
2022-10-14T02:06:32.821Z,88.13
2022-10-14T02:09:17.286Z,88.47
2022-10-14T02:12:23.240Z,88.18
2022-10-14T02:14:59.960Z,88.10
2022-10-14T02:17:40.335Z,88.11
2022-10-14T02:20:31.652Z,88.40
2022-10-14T02:23:05.848Z,88.40
2022-10-14T02:25:38.543Z,88.22
2022-10-14T02:28:08.530Z,88.16
2022-10-14T02:30:42.682Z,88.36
2022-10-14T02:33:10.205Z,88.55
2022-10-14T02:35:38.887Z,88.57
2022-10-14T02:38:08.076Z,88.49
2022-10-14T02:40:46.303Z,88.16
2022-10-14T02:43:13.928Z,88.12
2022-10-14T02:45:43.387Z,88.17
2022-10-14T02:48:11.846Z,88.28
2022-10-14T02:50:38.864Z,88.08
2022-10-14T02:53:05.777Z,87.96
2022-10-14T02:55:32.774Z,88.40
2022-10-14T02:57:59.595Z,88.46
2022-10-14T03:00:26.462Z,88.51
2022-10-14T03:02:53.492Z,88.78
2022-10-14T03:05:20.327Z,88.73
2022-10-14T03:07:47.577Z,89.02
2022-10-14T03:10:14.478Z,88.83
2022-10-14T03:12:41.265Z,88.84
2022-10-14T03:15:09.472Z,89.17
2022-10-14T03:17:36.681Z,89.30
2022-10-14T03:20:07.704Z,89.22
2022-10-14T03:22:34.853Z,89.69
2022-10-14T03:25:01.741Z,90.01
2022-10-14T03:27:28.734Z,90.65
2022-10-14T03:29:55.515Z,90.51
2022-10-14T03:32:22.733Z,90.97
2022-10-14T03:34:49.818Z,90.84
2022-10-14T03:37:16.627Z,91.13
2022-10-14T03:39:43.399Z,91.27
2022-10-14T03:42:10.156Z,91.15
2022-10-14T03:44:37.289Z,91.21
2022-10-14T03:47:04.245Z,91.36
2022-10-14T03:49:31.029Z,91.27
2022-10-14T03:51:57.817Z,90.96
2022-10-14T03:54:24.689Z,91.04
2022-10-14T03:56:51.509Z,91.33
2022-10-14T03:59:18.448Z,91.07
2022-10-14T04:01:45.277Z,91.00
2022-10-14T04:04:12.149Z,90.98
2022-10-14T04:06:38.980Z,90.65
2022-10-14T04:09:05.793Z,90.50
2022-10-14T04:11:32.828Z,90.50
2022-10-14T04:14:00.990Z,90.54
2022-10-14T04:16:27.987Z,90.57
2022-10-14T04:18:54.803Z,90.85
2022-10-14T04:21:21.572Z,91.01
2022-10-14T04:23:48.340Z,91.48
2022-10-14T04:26:15.355Z,91.62
2022-10-14T04:28:42.207Z,91.89
2022-10-14T04:31:09.188Z,91.62
2022-10-14T04:33:36.665Z,91.53
2022-10-14T04:36:06.535Z,92.19
2022-10-14T04:38:33.936Z,92.16
2022-10-14T04:41:00.977Z,91.73
2022-10-14T04:43:27.908Z,91.72
2022-10-14T04:45:54.782Z,91.99
2022-10-14T04:48:22.233Z,92.15
2022-10-14T04:50:54.081Z,92.40
2022-10-14T04:53:22.418Z,92.01
2022-10-14T04:55:50.077Z,92.23
2022-10-14T04:58:17.372Z,92.27
2022-10-14T05:00:44.674Z,92.23
2022-10-14T05:03:11.545Z,92.12
2022-10-14T05:05:38.493Z,92.30
2022-10-14T05:08:06.234Z,92.37
2022-10-14T05:10:33.853Z,92.25
2022-10-14T05:13:01.122Z,92.47
2022-10-14T05:15:28.061Z,92.35
2022-10-14T05:17:54.832Z,92.39
2022-10-14T05:20:21.677Z,92.55
2022-10-14T05:22:48.437Z,92.47
2022-10-14T05:25:15.336Z,92.21
2022-10-14T05:27:42.442Z,92.45
2022-10-14T05:30:10.450Z,92.27
2022-10-14T05:32:37.309Z,92.42
2022-10-14T05:35:05.291Z,92.27
2022-10-14T05:37:32.357Z,92.55
2022-10-14T05:39:59.182Z,92.53
2022-10-14T05:42:26.028Z,92.62
2022-10-14T05:44:53.361Z,92.49
2022-10-14T05:47:20.351Z,92.45
2022-10-14T05:49:47.163Z,92.41
2022-10-14T05:52:14.138Z,92.64
2022-10-14T05:54:40.987Z,92.63
2022-10-14T05:57:07.874Z,92.61
2022-10-14T05:59:34.993Z,92.69
2022-10-14T06:02:02.764Z,92.63
2022-10-14T06:04:29.768Z,93.05
2022-10-14T06:06:56.609Z,92.72
2022-10-14T06:09:23.515Z,92.97
2022-10-14T06:11:50.656Z,92.89
2022-10-14T06:14:17.615Z,92.94
2022-10-14T06:16:44.425Z,92.95
2022-10-14T06:19:11.341Z,92.63
2022-10-14T06:21:38.153Z,92.88
2022-10-14T06:24:05.197Z,92.91
2022-10-14T06:26:32.795Z,92.74
2022-10-14T06:28:59.656Z,93.00
2022-10-14T06:31:31.268Z,93.05
2022-10-14T06:33:59.412Z,92.86
2022-10-14T06:36:27.005Z,93.76
2022-10-14T06:38:54.899Z,93.47
2022-10-14T06:41:21.711Z,93.49
2022-10-14T06:43:48.625Z,93.53
2022-10-14T06:46:15.467Z,93.54
2022-10-14T06:48:43.976Z,93.46
2022-10-14T06:51:13.877Z,93.73
2022-10-14T06:53:40.693Z,93.62
2022-10-14T06:56:09.513Z,94.04
2022-10-14T06:58:36.300Z,93.71
2022-10-14T07:01:07.942Z,93.77
2022-10-14T07:03:36.876Z,94.04
2022-10-14T07:06:05.793Z,94.20
2022-10-14T07:08:33.179Z,94.06
2022-10-14T07:11:00.678Z,94.30
2022-10-14T07:13:27.716Z,94.72
2022-10-14T07:15:54.575Z,94.30
2022-10-14T07:18:21.610Z,94.59
2022-10-14T07:20:48.456Z,94.21
2022-10-14T07:23:15.587Z,94.30
2022-10-14T07:25:42.827Z,94.30
2022-10-14T07:28:09.718Z,94.35
2022-10-14T07:30:36.612Z,94.47
2022-10-14T07:33:03.521Z,94.42
2022-10-14T07:35:30.493Z,95.33
2022-10-14T07:37:58.944Z,94.72
2022-10-14T07:40:26.453Z,94.28
2022-10-14T07:42:53.235Z,94.26
2022-10-14T07:45:21.391Z,94.43
2022-10-14T07:47:50.986Z,94.00
2022-10-14T07:50:18.131Z,93.98
2022-10-14T07:52:45.362Z,94.15
2022-10-14T07:55:12.546Z,93.99
2022-10-14T07:57:39.573Z,93.98
2022-10-14T08:00:08.045Z,93.93
2022-10-14T08:02:35.333Z,94.18
2022-10-14T08:07:49.162Z,93.78
2022-10-14T08:10:16.416Z,93.62
2022-10-14T08:12:43.192Z,94.00
2022-10-14T08:15:10.405Z,93.52
2022-10-14T08:17:37.771Z,93.63
2022-10-14T08:20:05.232Z,93.96
2022-10-14T08:22:35.187Z,93.42
2022-10-14T08:25:02.425Z,93.75
2022-10-14T08:27:29.572Z,93.96
2022-10-14T08:29:56.406Z,94.05
2022-10-14T08:32:24.315Z,93.95
2022-10-14T08:34:51.407Z,93.94
2022-10-14T08:37:18.218Z,93.98
2022-10-14T08:39:45.421Z,94.57
2022-10-14T08:42:59.939Z,94.54
2022-10-14T08:45:41.667Z,94.40
2022-10-14T08:48:18.825Z,94.33
2022-10-14T08:50:57.473Z,94.15
2022-10-14T08:53:30.807Z,94.05
2022-10-14T08:56:00.688Z,94.08
2022-10-14T08:58:36.542Z,93.83
2022-10-14T09:01:32.271Z,93.64
2022-10-14T09:04:05.167Z,93.17
2022-10-14T09:06:36.086Z,93.17
2022-10-14T09:09:12.215Z,92.93
2022-10-14T09:11:44.186Z,92.72
2022-10-14T09:14:21.726Z,92.80
2022-10-14T09:16:54.378Z,92.40
2022-10-14T09:19:47.032Z,91.63
2022-10-14T09:22:15.901Z,91.89
2022-10-14T09:24:46.283Z,90.88
2022-10-14T09:27:22.031Z,89.36
2022-10-14T09:29:57.615Z,89.09
2022-10-14T09:32:49.790Z,88.70
2022-10-14T09:35:31.152Z,88.30
2022-10-14T09:37:58.618Z,87.33
2022-10-14T09:40:33.849Z,87.18
2022-10-14T09:43:09.402Z,87.21
2022-10-14T09:46:00.362Z,86.21
2022-10-14T09:48:47.456Z,85.49
2022-10-14T09:51:33.983Z,85.17
2022-10-14T09:54:04.720Z,83.84
2022-10-14T09:56:41.576Z,83.67
2022-10-14T09:59:20.719Z,83.25
2022-10-14T10:01:55.067Z,81.34
2022-10-14T10:04:42.094Z,81.83
2022-10-14T10:07:35.058Z,80.77
2022-10-14T10:10:19.016Z,81.01
2022-10-14T10:12:47.324Z,80.32
2022-10-14T10:15:21.741Z,80.90
2022-10-14T10:17:49.796Z,80.95
2022-10-14T10:20:23.898Z,81.42
2022-10-14T10:22:51.766Z,81.25
2022-10-14T10:25:21.717Z,80.98
2022-10-14T10:27:50.455Z,81.15
2022-10-14T10:30:29.572Z,80.61
2022-10-14T10:33:33.696Z,80.32
2022-10-14T10:39:20.874Z,78.72
2022-10-14T10:42:11.217Z,78.30
2022-10-14T10:45:27.432Z,77.41
2022-10-14T10:48:03.079Z,76.85
2022-10-14T10:50:59.087Z,77.58
2022-10-14T10:53:41.416Z,77.15
2022-10-14T10:56:23.019Z,76.29
2022-10-14T10:59:06.686Z,76.58
2022-10-14T11:02:00.317Z,74.68
2022-10-14T11:04:35.771Z,74.55
2022-10-14T11:07:51.143Z,75.02
2022-10-14T11:10:49.962Z,74.49
2022-10-14T11:13:45.961Z,72.23
2022-10-14T11:16:26.709Z,72.76
2022-10-14T11:19:20.799Z,72.17
2022-10-14T11:22:04.762Z,71.55
2022-10-14T11:24:58.932Z,70.69
2022-10-14T11:28:03.558Z,70.48
2022-10-14T11:31:07.000Z,68.28
2022-10-14T11:34:19.304Z,68.36
2022-10-14T11:37:35.038Z,68.79
2022-10-14T11:40:30.878Z,68.81
2022-10-14T11:43:13.817Z,67.17
2022-10-14T11:46:22.231Z,67.70
2022-10-14T11:48:56.302Z,67.52
2022-10-14T11:51:46.006Z,67.19
2022-10-14T11:54:33.132Z,67.44
2022-10-14T11:57:10.766Z,67.77
2022-10-14T11:59:50.741Z,67.72
2022-10-14T12:02:36.403Z,67.38
2022-10-14T12:05:17.118Z,67.34
2022-10-14T12:08:22.325Z,66.79
2022-10-14T12:10:59.142Z,65.05
2022-10-14T12:13:37.988Z,65.68
2022-10-14T12:16:19.313Z,64.12
2022-10-14T12:18:50.722Z,64.24
2022-10-14T12:21:32.803Z,63.79
2022-10-14T12:24:09.396Z,64.30
2022-10-14T12:26:58.859Z,63.23
2022-10-14T12:29:32.953Z,63.48
2022-10-14T12:32:28.249Z,64.09
2022-10-14T12:34:58.335Z,63.49
2022-10-14T12:37:30.828Z,62.43
2022-10-14T12:40:07.463Z,61.92
2022-10-14T12:42:44.730Z,61.92
2022-10-14T12:45:24.735Z,61.89
2022-10-14T12:48:16.001Z,62.75
2022-10-14T12:50:45.714Z,63.15
2022-10-14T12:53:27.397Z,63.03
2022-10-14T12:56:01.449Z,63.28
2022-10-14T12:59:01.425Z,62.64
2022-10-14T13:01:32.330Z,63.12
2022-10-14T13:04:08.410Z,62.75
2022-10-14T13:06:41.199Z,63.43
2022-10-14T13:09:15.336Z,63.39
2022-10-14T13:11:53.981Z,63.24
2022-10-14T13:14:32.288Z,62.43
2022-10-14T13:17:04.315Z,62.68
2022-10-14T13:19:34.118Z,63.12
2022-10-14T13:22:31.487Z,63.07
2022-10-14T13:25:16.343Z,63.26
2022-10-14T13:27:56.507Z,62.95
2022-10-14T13:30:52.029Z,63.48
2022-10-14T13:33:31.181Z,63.29
2022-10-14T13:36:13.908Z,63.30
2022-10-14T13:38:47.847Z,63.87
2022-10-14T13:41:29.852Z,64.54
2022-10-14T13:43:59.975Z,65.08
2022-10-14T13:46:42.442Z,67.35
2022-10-14T13:49:17.204Z,69.09
2022-10-14T13:52:00.685Z,69.72
2022-10-14T13:54:32.797Z,70.55
2022-10-14T13:57:47.784Z,71.61
2022-10-14T14:00:40.098Z,71.84
2022-10-14T14:03:22.284Z,72.77
2022-10-14T14:05:50.585Z,73.21
2022-10-14T14:08:39.879Z,73.38
2022-10-14T14:11:17.174Z,73.52
2022-10-14T14:14:17.206Z,73.99
2022-10-14T14:16:52.548Z,74.52
2022-10-14T14:19:43.557Z,74.92
2022-10-14T14:22:29.544Z,74.66
2022-10-14T14:28:08.143Z,75.02
2022-10-14T14:30:39.730Z,75.15
2022-10-14T14:33:18.508Z,75.90
2022-10-14T14:36:27.334Z,75.96
2022-10-14T14:39:02.296Z,75.89
2022-10-14T14:41:32.058Z,76.34
2022-10-14T14:44:24.707Z,76.42
2022-10-14T14:46:53.383Z,77.25
2022-10-14T14:49:46.484Z,78.03
2022-10-14T14:52:14.823Z,78.91
2022-10-14T14:54:48.058Z,78.73
2022-10-14T14:57:20.467Z,79.32
2022-10-14T15:00:06.362Z,79.95
2022-10-14T15:02:35.197Z,80.27
2022-10-14T15:05:10.769Z,80.75
2022-10-14T15:07:37.862Z,81.12
2022-10-14T15:10:08.161Z,81.47
2022-10-14T15:12:42.094Z,82.06
2022-10-14T15:15:32.406Z,81.82
2022-10-14T15:18:28.407Z,81.88
2022-10-14T15:21:16.871Z,82.02
2022-10-14T15:23:49.648Z,81.94
2022-10-14T15:26:35.346Z,83.31
2022-10-14T15:29:08.398Z,83.45
2022-10-14T15:31:37.224Z,83.10
2022-10-14T15:34:05.626Z,83.36
2022-10-14T15:36:34.353Z,83.47
2022-10-14T15:39:02.601Z,83.74
2022-10-14T15:41:29.916Z,84.22
2022-10-14T15:43:56.864Z,83.93
2022-10-14T15:46:42.110Z,84.03
2022-10-14T15:49:25.766Z,83.66
2022-10-14T15:51:53.038Z,84.04
2022-10-14T15:54:19.816Z,83.90
2022-10-14T15:56:48.643Z,84.42
2022-10-14T15:59:16.460Z,84.48
2022-10-14T16:01:45.321Z,84.49
2022-10-14T16:04:24.150Z,84.31
2022-10-14T16:06:55.897Z,84.01
2022-10-14T16:09:24.989Z,84.34
2022-10-14T16:11:57.502Z,84.44
2022-10-14T16:14:27.869Z,84.53
2022-10-14T16:16:55.828Z,84.32
2022-10-14T16:19:22.759Z,84.34
2022-10-14T16:21:50.170Z,84.47
2022-10-14T16:24:20.999Z,84.71
2022-10-14T16:26:49.397Z,84.65
2022-10-14T16:29:18.303Z,84.53
2022-10-14T16:31:47.454Z,84.55
2022-10-14T16:34:14.245Z,84.76
2022-10-14T16:36:41.584Z,84.47
2022-10-14T16:39:10.997Z,84.56
2022-10-14T16:41:37.964Z,84.61
2022-10-14T16:44:05.973Z,84.89
2022-10-14T16:46:52.338Z,84.92
2022-10-14T16:49:19.336Z,85.22
2022-10-14T16:51:46.169Z,85.09
2022-10-14T16:54:12.954Z,85.36
2022-10-14T16:56:54.880Z,85.16
2022-10-14T16:59:22.628Z,85.22
2022-10-14T17:01:51.176Z,85.41
2022-10-14T17:04:19.735Z,84.95
2022-10-14T17:06:50.607Z,85.31
2022-10-14T17:09:18.460Z,85.06
2022-10-14T17:11:46.186Z,85.19
2022-10-14T17:14:18.359Z,85.23
2022-10-14T17:16:47.157Z,84.99
2022-10-14T17:19:14.088Z,85.71
2022-10-14T17:21:40.854Z,85.45
2022-10-14T17:24:08.322Z,85.33
2022-10-14T17:26:35.443Z,85.46
2022-10-14T17:29:02.700Z,85.52
2022-10-14T17:31:30.976Z,85.46
2022-10-14T17:34:00.496Z,85.79
2022-10-14T17:36:30.941Z,85.56
2022-10-14T17:38:59.277Z,85.70
2022-10-14T17:41:29.621Z,85.69
2022-10-14T17:44:01.500Z,85.68
2022-10-14T17:46:29.912Z,85.76
2022-10-14T17:49:00.784Z,85.88
2022-10-14T17:51:28.895Z,85.63
2022-10-14T17:54:01.914Z,85.91
2022-10-14T17:56:31.234Z,85.87
2022-10-14T17:59:01.049Z,86.09
2022-10-14T18:01:37.928Z,86.20
2022-10-14T18:04:16.657Z,86.07
2022-10-14T18:06:45.667Z,85.86
2022-10-14T18:09:13.544Z,85.79
2022-10-14T18:14:30.410Z,86.19
2022-10-14T18:16:59.510Z,85.69
2022-10-14T18:19:27.240Z,85.72
2022-10-14T18:21:54.167Z,85.54
2022-10-14T18:24:21.018Z,85.88
2022-10-14T18:26:53.467Z,85.91
2022-10-14T18:29:20.632Z,85.78
2022-10-14T18:34:37.292Z,85.81
2022-10-14T18:37:04.414Z,85.67
2022-10-14T18:39:31.250Z,85.50
2022-10-14T18:41:58.071Z,85.38
2022-10-14T18:44:25.257Z,85.94
2022-10-14T18:46:52.060Z,85.88
2022-10-14T18:49:19.211Z,85.89
2022-10-14T18:51:46.283Z,85.70
2022-10-14T18:54:20.132Z,86.07
2022-10-14T18:56:47.458Z,86.41
2022-10-14T18:59:19.700Z,86.14
2022-10-14T19:01:48.080Z,86.21
2022-10-14T19:04:16.674Z,86.26
2022-10-14T19:06:49.007Z,85.91
2022-10-14T19:09:17.598Z,86.20
2022-10-14T19:11:44.862Z,86.26
2022-10-14T19:14:13.939Z,85.98
2022-10-14T19:16:40.949Z,85.70
2022-10-14T19:19:14.411Z,86.10
2022-10-14T19:21:41.367Z,86.03
2022-10-14T19:24:10.930Z,85.76
2022-10-14T19:26:42.037Z,85.86
2022-10-14T19:29:11.866Z,86.21
2022-10-14T19:31:39.847Z,85.86
2022-10-14T19:34:10.142Z,85.90
2022-10-14T19:36:38.545Z,85.93
2022-10-14T19:39:08.468Z,85.56
2022-10-14T19:41:43.346Z,85.77
2022-10-14T19:44:11.466Z,85.99
2022-10-14T19:46:39.102Z,85.85
2022-10-14T19:49:06.839Z,85.93
2022-10-14T19:51:35.005Z,85.87
2022-10-14T19:54:02.647Z,86.01
2022-10-14T19:56:30.072Z,85.81
2022-10-14T19:58:59.236Z,85.72
2022-10-14T20:01:29.238Z,85.96
2022-10-14T20:03:56.740Z,85.82
2022-10-14T20:06:24.310Z,85.78
2022-10-14T20:08:51.575Z,85.83
2022-10-14T20:11:23.484Z,85.95
2022-10-14T20:13:50.664Z,85.95
2022-10-14T20:16:18.008Z,86.04
2022-10-14T20:18:44.994Z,86.36
2022-10-14T20:21:15.635Z,86.61
2022-10-14T20:23:43.440Z,86.87
2022-10-14T20:26:17.716Z,86.68
2022-10-14T20:28:44.868Z,86.92
2022-10-14T20:31:20.115Z,86.97
2022-10-14T20:33:47.038Z,86.95
2022-10-14T20:36:17.757Z,87.07
2022-10-14T20:38:45.004Z,86.64
2022-10-14T20:41:25.290Z,86.23
2022-10-14T20:43:53.984Z,86.73
2022-10-14T20:46:22.779Z,86.32
2022-10-14T20:48:57.516Z,86.21
2022-10-14T20:51:25.372Z,86.17
2022-10-14T20:54:01.714Z,86.01
2022-10-14T20:56:32.773Z,86.58
2022-10-14T20:59:03.984Z,86.77
2022-10-14T21:01:31.339Z,86.79
2022-10-14T21:04:02.739Z,86.69
2022-10-14T21:06:30.369Z,86.87
2022-10-14T21:08:58.850Z,86.81
2022-10-14T21:11:27.913Z,87.07
2022-10-14T21:13:58.529Z,87.14
2022-10-14T21:16:29.782Z,87.05
2022-10-14T21:19:09.259Z,87.22
2022-10-14T21:21:47.185Z,87.31
2022-10-14T21:24:18.357Z,87.38
2022-10-14T21:26:48.117Z,87.48
2022-10-14T21:29:15.356Z,87.75
2022-10-14T21:31:42.270Z,87.78
2022-10-14T21:34:10.650Z,87.98
2022-10-14T21:36:38.845Z,88.11
2022-10-14T21:39:08.568Z,88.29
2022-10-14T21:41:36.368Z,88.53
2022-10-14T21:44:04.711Z,88.84
2022-10-14T21:46:32.431Z,89.11
2022-10-14T21:49:00.425Z,88.89
2022-10-14T21:51:30.215Z,88.97
2022-10-14T21:53:58.187Z,88.85
2022-10-14T21:56:26.469Z,89.11
2022-10-14T21:58:53.359Z,88.86
2022-10-14T22:01:27.380Z,89.08
2022-10-14T22:03:58.608Z,88.70
2022-10-14T22:06:26.435Z,89.05
2022-10-14T22:08:57.374Z,88.58
2022-10-14T22:11:34.608Z,89.00
2022-10-14T22:14:05.316Z,89.38
2022-10-14T22:16:32.351Z,89.28
2022-10-14T22:19:02.382Z,89.52
2022-10-14T22:21:32.309Z,89.31
2022-10-14T22:23:59.441Z,89.15
2022-10-14T22:26:28.641Z,89.14
2022-10-14T22:29:12.509Z,88.87
2022-10-14T22:31:39.578Z,89.09
2022-10-14T22:34:08.585Z,88.83
2022-10-14T22:36:36.731Z,88.78
2022-10-14T22:39:08.424Z,88.82
2022-10-14T22:41:36.118Z,88.90
2022-10-14T22:44:05.331Z,88.87
2022-10-14T22:46:34.588Z,88.81
2022-10-14T22:49:02.200Z,88.90
2022-10-14T22:51:36.373Z,89.03
2022-10-14T22:54:04.587Z,88.90
2022-10-14T22:56:32.653Z,89.12
2022-10-14T22:59:03.892Z,89.08
2022-10-14T23:01:31.538Z,88.99
2022-10-14T23:04:00.248Z,89.22
2022-10-14T23:06:28.719Z,89.34
2022-10-14T23:08:56.096Z,89.13
2022-10-14T23:11:25.247Z,89.46
2022-10-14T23:13:53.064Z,89.43
2022-10-14T23:16:26.478Z,89.47
2022-10-14T23:18:54.266Z,89.53
2022-10-14T23:21:31.532Z,89.33
2022-10-14T23:24:01.810Z,89.37
2022-10-14T23:26:31.816Z,89.45
2022-10-14T23:29:00.518Z,89.60
2022-10-14T23:31:31.353Z,89.62
2022-10-14T23:34:01.131Z,89.50
2022-10-14T23:36:28.476Z,89.72
2022-10-14T23:38:55.449Z,89.88
2022-10-14T23:41:23.710Z,89.77
2022-10-14T23:43:52.395Z,89.54
2022-10-14T23:46:20.776Z,89.87
2022-10-14T23:48:55.694Z,89.59
2022-10-14T23:51:35.598Z,89.85
2022-10-14T23:54:02.476Z,89.98
2022-10-14T23:56:29.501Z,90.03
2022-10-14T23:58:56.300Z,89.70
